Les Masies de Roda





Hora UTC 11:00
Temperatura 18.9 ºC
Sòl 15 cm 24.9 ºC
Subsòl 10 cm 19.2 ºC
Humitat 60.1 %
Pressió 1011.2 hPa
Pluja 0.0 mm
Velocitat vent 17.7 km/h
Direcció vent SSW
Radiació solar 938.0 W/m²

Dades diàries 2021-05-14



Hora UTC (hivern +1h; estiu +2h)
Temperatura (ºC) Humitat (%) Pressió (hPa) Velocitat vent (km/h) Precipitació (mm) Radiació solar (W/m²)
Hora UTC Aire Sòl 15 cm Subsòl 10 cm Humitat Pressió Vel. Dir. Vel. Max Dir. Intent. màx 5 min. Rad. Sol.
00:05 11.7 9.7 14.8 85.7 1009.9 0.0 NNE 0.0 ENE 0.0 0.1
00:10 11.7 9.7 14.8 85.5 1009.8 0.0 NNE 0.0 NE 0.0 0.1
00:15 11.7 9.5 14.7 85.1 1009.8 0.0 NNE 0.0 NE 0.0 0.1
00:20 11.6 9.4 14.7 86.2 1009.8 0.2 NE 3.4 NE 0.0 0.1
00:25 11.6 9.6 14.7 85.5 1009.8 2.3 SSE 6.1 S 0.0 0.1
00:30 12.0 10.0 14.7 83.6 1009.8 3.0 SE 6.1 SE 0.0 0.1
00:35 12.1 10.3 14.7 83.4 1009.8 3.2 E 6.1 SE 0.0 0.1
00:40 12.0 10.5 14.7 85.0 1009.8 1.1 NE 6.1 NE 0.0 0.1
00:45 12.0 10.7 14.7 85.4 1009.8 0.0 NNE 0.0 ENE 0.0 0.1
00:50 11.9 10.7 14.7 87.0 1009.7 0.0 NNE 0.0 NE 0.0 0.1
00:55 11.9 10.8 14.7 84.9 1009.7 0.0 NNE 0.0 ENE 0.0 0.1
01:00 11.9 10.9 14.7 85.7 1009.7 0.0 NNE 0.0 E 0.0 0.1
01:05 11.9 10.9 14.7 86.9 1009.7 0.0 NNE 0.0 E 0.0 0.1
01:10 11.8 10.9 14.7 88.0 1009.6 0.0 NNE 0.0 E 0.0 0.1
01:15 11.8 11.0 14.7 86.5 1009.5 2.5 E 6.1 E 0.0 0.1
01:20 12.0 11.0 14.7 85.5 1009.5 0.5 E 6.1 ESE 0.0 0.1
01:25 12.0 11.1 14.7 86.0 1009.6 0.0 NNE 0.0 E 0.0 0.1
01:30 12.0 11.1 14.7 86.7 1009.6 0.0 NNE 0.0 NE 0.0 0.1
01:35 12.0 11.2 14.7 86.2 1009.5 0.0 NNE 0.0 NE 0.0 0.1
01:40 12.0 11.2 14.7 85.9 1009.5 0.0 NNE 0.0 E 0.0 0.1
01:45 12.0 11.2 14.7 86.5 1009.4 0.0 NNE 0.0 ENE 0.0 0.1
01:50 12.0 11.2 14.7 87.5 1009.4 0.0 NNE 0.0 ENE 0.0 0.1
01:55 11.9 11.2 14.7 87.6 1009.3 0.0 NNE 0.0 ENE 0.0 0.1
02:00 11.9 11.2 14.7 86.4 1009.3 0.0 NNE 0.0 ENE 0.0 0.1
02:05 11.9 11.1 14.7 87.8 1009.4 0.0 NNE 0.0 NE 0.0 0.1
02:10 11.9 11.1 14.7 87.6 1009.5 0.0 NNE 0.0 NNW 0.0 0.1
02:15 11.9 11.1 14.7 86.9 1009.4 0.0 NNE 0.0 NNW 0.0 0.1
02:20 12.0 11.2 14.7 86.2 1009.4 0.0 NNE 0.0 ENE 0.0 0.1
02:25 12.1 11.2 14.7 85.2 1009.3 0.0 NNE 0.0 ENE 0.0 0.1
02:30 12.1 11.3 14.7 85.8 1009.3 0.0 NNE 0.0 ESE 0.0 0.1
02:35 12.1 11.3 14.7 86.1 1009.3 0.0 NNE 0.0 NE 0.0 0.1
02:40 12.1 11.2 14.7 86.8 1009.3 0.0 NNE 0.0 N 0.0 0.1
02:45 12.0 11.2 14.7 87.6 1009.3 1.3 NNW 6.1 NNW 0.0 0.1
02:50 11.9 11.2 14.7 88.3 1009.2 0.4 NNW 6.1 NNW 0.0 0.1
02:55 11.9 11.2 14.7 88.4 1009.1 0.0 NNE 0.0 NNW 0.0 0.1
03:00 11.9 11.1 14.7 87.3 1009.1 0.0 NNE 0.0 NNW 0.0 0.1
03:05 11.9 11.1 14.6 87.0 1009.1 0.1 NW 3.4 NW 0.0 0.1
03:10 11.9 11.1 14.6 88.4 1009.1 0.8 WNW 3.4 WNW 0.0 0.1
03:15 11.8 11.0 14.6 88.4 1009.2 0.0 NNE 0.0 WNW 0.0 0.1
03:20 11.8 11.0 14.6 87.2 1009.2 0.0 NNE 0.0 NW 0.0 0.1
03:25 11.9 11.0 14.6 87.1 1009.2 0.0 NNE 0.0 NW 0.0 0.1
03:30 11.9 11.0 14.6 88.7 1009.3 2.9 WNW 6.1 WNW 0.0 0.1
03:35 11.8 11.0 14.6 89.4 1009.3 1.4 NW 6.1 NW 0.0 0.1
03:40 11.7 11.0 14.6 88.6 1009.3 0.0 NNE 0.0 W 0.0 0.1
03:45 11.7 10.9 14.5 86.9 1009.3 0.7 W 6.1 W 0.0 0.1
03:50 11.7 10.8 14.5 86.9 1009.4 0.0 NW 3.4 NW 0.0 0.1
03:55 11.7 10.8 14.5 87.7 1009.4 0.0 NNE 0.0 NW 0.0 0.1
04:00 11.6 10.8 14.5 87.8 1009.3 0.0 NNE 0.0 NNE 0.0 0.1
04:05 11.6 10.8 14.5 87.3 1009.3 0.0 NNE 0.0 NNE 0.0 0.1
04:10 11.7 10.8 14.5 85.8 1009.3 0.0 NNE 0.0 N 0.0 0.1
04:15 11.7 10.8 14.4 86.3 1009.3 0.0 NNE 0.0 N 0.0 0.1
04:20 11.7 10.9 14.4 86.5 1009.3 0.0 NNE 0.0 NE 0.0 0.2
04:25 11.8 10.9 14.4 86.5 1009.3 0.0 NNE 0.0 NE 0.0 0.2
04:30 11.7 10.9 14.4 86.5 1009.3 0.0 NNE 0.0 NE 0.0 0.5
04:35 11.7 10.8 14.4 84.8 1009.3 0.0 NNE 0.0 NE 0.0 0.8
04:40 11.7 10.9 14.4 86.2 1009.4 0.0 NNE 0.0 NE 0.0 1.2
04:45 11.7 10.9 14.4 85.6 1009.3 0.0 NNE 0.0 NE 0.0 1.8
04:50 11.7 10.9 14.4 87.0 1009.4 0.0 NNE 0.0 NE 0.0 2.8
04:55 11.7 10.9 14.4 86.8 1009.4 0.0 NNE 0.0 WSW 0.0 3.1
05:00 11.7 10.9 14.4 88.1 1009.5 0.0 NNE 0.0 W 0.0 3.2
05:05 11.6 10.9 14.4 87.1 1009.5 0.0 NNE 0.0 WNW 0.0 4.5
05:10 11.6 10.9 14.4 87.4 1009.5 0.0 NNE 0.0 NW 0.0 9.2
05:15 11.6 10.9 14.4 87.2 1009.5 0.0 NNE 0.0 NNW 0.0 13.0
05:20 11.6 10.9 14.4 86.9 1009.7 0.0 NNE 0.0 NW 0.0 12.3
05:25 11.6 11.0 14.4 87.2 1009.7 0.0 NNE 0.0 NW 0.0 10.0
05:30 11.6 11.0 14.4 87.1 1009.7 0.0 NNE 0.0 WNW 0.0 11.7
05:35 11.7 11.1 14.3 87.3 1009.7 0.0 NNE 0.0 WNW 0.0 21.0
05:40 11.7 11.2 14.3 87.2 1009.8 0.0 NNE 0.0 WNW 0.0 25.6
05:45 11.8 11.4 14.4 88.2 1009.8 0.0 NNE 0.0 WNW 0.0 28.7
05:50 11.8 11.5 14.4 87.8 1009.9 0.0 NNE 0.0 WNW 0.0 40.1
05:55 11.8 11.6 14.4 87.1 1009.9 0.0 NNE 0.0 NW 0.0 39.1
06:00 11.9 11.7 14.4 87.0 1009.9 0.0 NNE 0.0 NW 0.0 49.0
06:05 11.9 11.9 14.4 87.3 1010.0 1.7 NW 8.8 NW 0.0 71.2
06:10 12.0 12.1 14.5 86.1 1010.1 4.4 NW 8.8 N 0.0 93.3
06:15 12.0 12.2 14.5 85.3 1010.1 5.4 NW 8.8 NW 0.0 117.9
06:20 12.1 12.4 14.6 85.5 1010.2 4.4 NW 8.8 NW 0.0 168.9
06:25 12.4 12.8 14.7 84.7 1010.2 3.2 NNW 8.8 NNW 0.0 230.5
06:30 12.7 13.2 14.8 82.4 1010.2 3.4 NNW 8.8 NNW 0.0 203.2
06:35 12.9 13.3 14.9 81.0 1010.3 5.5 NNW 8.8 NNW 0.0 178.6
06:40 12.8 13.4 14.9 81.4 1010.4 4.3 NW 8.8 NW 0.0 168.8
06:45 12.9 13.6 15.0 81.1 1010.4 3.2 WNW 6.1 NW 0.0 90.8
06:50 12.9 13.8 14.9 81.5 1010.5 1.3 W 6.1 W 0.0 142.7
06:55 13.0 14.2 15.0 80.3 1010.5 0.0 NNE 0.0 WNW 0.0 141.5
07:00 13.2 14.7 15.0 80.6 1010.6 0.9 W 6.1 NW 0.0 191.0
07:05 13.5 15.3 15.1 79.3 1010.6 3.2 W 6.1 WNW 0.0 195.3
07:10 13.7 15.5 15.2 77.9 1010.7 0.9 WNW 6.1 W 0.0 168.4
07:15 13.8 15.9 15.2 77.5 1010.8 0.0 NNE 0.0 W 0.0 171.8
07:20 13.8 15.9 15.2 78.6 1010.8 2.6 W 8.8 W 0.0 135.1
07:25 13.7 15.6 15.3 79.7 1010.8 2.2 NW 6.1 W 0.0 70.8
07:30 13.6 15.3 15.2 79.5 1010.8 0.1 NNE 3.4 NNE 0.0 43.3
07:35 13.6 14.9 15.2 80.4 1010.8 0.0 NNE 0.0 E 0.0 46.0
07:40 13.5 14.6 15.1 81.1 1010.8 2.0 SSE 8.8 S 0.0 41.4
07:45 13.3 14.0 15.1 82.6 1010.8 3.2 SSE 11.5 SSE 0.0 47.4
07:50 13.2 13.8 15.0 81.8 1010.9 11.1 SSW 22.3 S 0.0 118.4
07:55 13.1 13.7 15.0 81.9 1011.0 10.7 S 22.3 SSW 0.0 96.6
08:00 13.1 13.6 15.0 82.5 1011.2 7.1 SSW 14.2 SSW 0.0 71.2
08:05 13.1 13.6 15.0 82.8 1011.3 7.0 SSW 11.5 S 0.0 112.1
08:10 13.1 13.9 15.0 82.8 1011.3 8.2 SSW 16.9 SSW 0.0 211.2
08:15 13.9 15.6 15.1 82.4 1011.3 9.7 SSW 16.9 S 0.0 673.3
08:20 14.8 17.8 15.5 78.0 1011.3 9.9 S 16.9 SSE 0.0 569.2
08:25 14.9 18.7 15.8 76.9 1011.2 11.9 S 19.6 SSE 0.0 645.4
08:30 15.6 19.7 16.0 75.2 1011.2 8.3 S 14.2 S 0.0 620.3
08:35 16.1 20.1 16.3 73.0 1011.2 8.3 WSW 16.9 WNW 0.0 569.7
08:40 16.0 20.4 16.5 73.1 1011.3 7.6 WSW 14.2 SW 0.0 631.5
08:45 16.3 20.8 16.7 72.7 1011.2 10.1 SW 19.6 SSW 0.0 628.0
08:50 16.5 21.2 16.8 71.5 1011.2 11.4 SW 19.6 SSW 0.0 677.8
08:55 16.6 21.6 17.0 70.5 1011.1 9.2 WSW 16.9 WSW 0.0 679.1
09:00 17.0 22.1 17.2 66.9 1011.1 7.8 SSW 14.2 SW 0.0 727.1
09:05 17.7 23.4 17.4 65.3 1011.2 8.5 WSW 16.9 W 0.0 687.8
09:10 17.6 23.2 17.6 62.5 1011.1 9.9 SW 22.3 WSW 0.0 418.4
09:15 16.8 21.3 17.6 63.0 1011.2 10.0 SSW 16.9 SSW 0.0 302.8
09:20 16.9 21.0 17.5 64.1 1011.2 8.6 SW 14.2 WSW 0.0 517.2
09:25 17.2 21.5 17.6 66.1 1011.3 8.5 WSW 16.9 SW 0.0 714.1
09:30 17.6 22.7 17.7 64.4 1011.3 11.9 SSW 22.3 SSW 0.0 639.8
09:35 17.6 22.5 17.9 61.7 1011.3 11.7 SW 19.6 SW 0.0 546.5
09:40 17.4 22.3 17.9 62.8 1011.3 10.6 WSW 16.9 SSW 0.0 470.4
09:45 17.4 21.8 18.0 62.2 1011.4 12.4 SW 27.7 SW 0.0 500.9
09:50 17.4 21.6 18.0 60.7 1011.3 12.5 SW 22.3 SW 0.0 712.6
09:55 18.0 23.3 18.1 58.0 1011.3 11.7 SW 19.6 SW 0.0 922.0
10:00 18.6 24.7 18.4 59.5 1011.3 12.7 SSW 25.0 S 0.0 827.0
10:05 18.0 23.1 18.5 62.3 1011.3 14.3 SSW 25.0 S 0.0 339.8
10:10 17.5 21.8 18.4 63.0 1011.3 13.2 SW 22.3 S 0.0 583.4
10:15 18.2 23.5 18.5 62.9 1011.2 14.5 SSW 27.7 SSW 0.0 972.0
10:20 18.5 24.6 18.7 59.9 1011.2 15.3 SSW 25.0 SSW 0.0 835.0
10:25 18.1 23.3 18.8 60.2 1011.3 12.5 S 25.0 S 0.0 237.0
10:30 17.9 22.1 18.7 61.0 1011.3 13.5 SSW 25.0 SW 0.0 475.5
10:35 17.7 21.3 18.6 61.4 1011.3 12.9 SSW 27.7 SSW 0.0 568.6
10:40 18.2 23.0 18.7 61.1 1011.3 15.1 SW 33.1 SSW 0.0 923.0
10:45 18.1 22.1 18.9 60.3 1011.4 16.3 SSW 25.0 S 0.0 236.5
10:50 18.1 22.4 18.8 61.3 1011.3 16.7 SSW 25.0 S 0.0 935.0
10:55 18.4 23.8 19.0 60.5 1011.3 16.5 SSW 30.4 SSW 0.0 926.0
11:00 18.9 24.9 19.2 60.1 1011.2 17.7 SSW 27.7 SSW 0.0 938.0
Màxima 19.1 24.9 19.2 89.4 1011.4 17.7 SSW 33.1 SSW 0.0 972.0
Mínima 11.5 9.4 14.3 58.0 1009.1
Total 0.0